sensor_id;sensor_type;location;lat;lon;timestamp;temperature;humidity
14473;DHT22;7322;50.872;4.386;2023-07-09T00:02:15;27.70;99.90
14473;DHT22;7322;50.872;4.386;2023-07-09T00:04:42;27.70;99.90
14473;DHT22;7322;50.872;4.386;2023-07-09T00:07:19;27.70;99.90
14473;DHT22;7322;50.872;4.386;2023-07-09T00:09:47;27.80;99.90
14473;DHT22;7322;50.872;4.386;2023-07-09T00:12:16;27.70;99.90
14473;DHT22;7322;50.872;4.386;2023-07-09T00:14:43;27.70;99.90
14473;DHT22;7322;50.872;4.386;2023-07-09T00:17:12;27.70;99.90
14473;DHT22;7322;50.872;4.386;2023-07-09T00:19:39;27.70;99.90
14473;DHT22;7322;50.872;4.386;2023-07-09T00:22:15;27.70;99.90
14473;DHT22;7322;50.872;4.386;2023-07-09T00:24:47;27.70;99.90
14473;DHT22;7322;50.872;4.386;2023-07-09T00:27:18;27.60;99.90
14473;DHT22;7322;50.872;4.386;2023-07-09T00:29:45;27.60;99.90
14473;DHT22;7322;50.872;4.386;2023-07-09T00:32:12;27.50;99.90
14473;DHT22;7322;50.872;4.386;2023-07-09T00:34:41;27.50;99.90
14473;DHT22;7322;50.872;4.386;2023-07-09T00:37:16;27.50;99.90
14473;DHT22;7322;50.872;4.386;2023-07-09T00:39:44;27.40;99.90
14473;DHT22;7322;50.872;4.386;2023-07-09T00:42:13;27.40;99.90
14473;DHT22;7322;50.872;4.386;2023-07-09T00:44:44;27.30;99.90
14473;DHT22;7322;50.872;4.386;2023-07-09T00:47:27;27.30;99.90
14473;DHT22;7322;50.872;4.386;2023-07-09T00:50:10;27.30;99.90
14473;DHT22;7322;50.872;4.386;2023-07-09T00:52:50;27.20;99.90
14473;DHT22;7322;50.872;4.386;2023-07-09T00:55:25;27.20;99.90
14473;DHT22;7322;50.872;4.386;2023-07-09T00:57:57;27.20;99.90
14473;DHT22;7322;50.872;4.386;2023-07-09T01:00:28;27.20;99.90
14473;DHT22;7322;50.872;4.386;2023-07-09T01:03:08;27.20;99.90
14473;DHT22;7322;50.872;4.386;2023-07-09T01:05:37;27.30;99.90
14473;DHT22;7322;50.872;4.386;2023-07-09T01:08:07;27.30;99.90
14473;DHT22;7322;50.872;4.386;2023-07-09T01:10:35;27.20;99.90
14473;DHT22;7322;50.872;4.386;2023-07-09T01:13:02;27.20;99.90
14473;DHT22;7322;50.872;4.386;2023-07-09T01:15:29;27.20;99.90
14473;DHT22;7322;50.872;4.386;2023-07-09T01:17:59;27.20;99.90
14473;DHT22;7322;50.872;4.386;2023-07-09T01:20:27;27.20;99.90
14473;DHT22;7322;50.872;4.386;2023-07-09T01:22:56;27.10;99.90
14473;DHT22;7322;50.872;4.386;2023-07-09T01:25:27;27.10;99.90
14473;DHT22;7322;50.872;4.386;2023-07-09T01:27:55;27.20;99.90
14473;DHT22;7322;50.872;4.386;2023-07-09T01:30:24;27.10;99.90
14473;DHT22;7322;50.872;4.386;2023-07-09T01:32:56;27.10;99.90
14473;DHT22;7322;50.872;4.386;2023-07-09T01:35:24;27.10;99.90
14473;DHT22;7322;50.872;4.386;2023-07-09T01:37:52;27.10;99.90
14473;DHT22;7322;50.872;4.386;2023-07-09T01:40:22;27.00;99.90
14473;DHT22;7322;50.872;4.386;2023-07-09T01:42:51;27.00;99.90
14473;DHT22;7322;50.872;4.386;2023-07-09T01:45:19;27.10;99.90
14473;DHT22;7322;50.872;4.386;2023-07-09T01:47:48;27.00;99.90
14473;DHT22;7322;50.872;4.386;2023-07-09T01:50:15;27.10;99.90
14473;DHT22;7322;50.872;4.386;2023-07-09T01:52:44;27.10;99.90
14473;DHT22;7322;50.872;4.386;2023-07-09T01:55:15;27.10;99.90
14473;DHT22;7322;50.872;4.386;2023-07-09T01:57:44;27.20;99.90
14473;DHT22;7322;50.872;4.386;2023-07-09T02:00:13;27.20;99.90
14473;DHT22;7322;50.872;4.386;2023-07-09T02:02:41;27.20;99.90
14473;DHT22;7322;50.872;4.386;2023-07-09T02:05:10;27.20;99.90
14473;DHT22;7322;50.872;4.386;2023-07-09T02:07:38;27.20;99.90
14473;DHT22;7322;50.872;4.386;2023-07-09T02:10:06;27.30;99.90
14473;DHT22;7322;50.872;4.386;2023-07-09T02:12:34;27.40;99.90
14473;DHT22;7322;50.872;4.386;2023-07-09T02:15:03;27.30;99.90
14473;DHT22;7322;50.872;4.386;2023-07-09T02:17:30;27.40;99.90
14473;DHT22;7322;50.872;4.386;2023-07-09T02:19:57;27.30;99.90
14473;DHT22;7322;50.872;4.386;2023-07-09T02:22:24;27.30;99.90
14473;DHT22;7322;50.872;4.386;2023-07-09T02:24:51;27.30;99.90
14473;DHT22;7322;50.872;4.386;2023-07-09T02:27:19;27.40;99.90
14473;DHT22;7322;50.872;4.386;2023-07-09T02:29:47;27.40;99.90
14473;DHT22;7322;50.872;4.386;2023-07-09T02:32:18;27.50;99.90
14473;DHT22;7322;50.872;4.386;2023-07-09T02:34:45;27.50;99.90
14473;DHT22;7322;50.872;4.386;2023-07-09T02:37:15;27.40;99.90
14473;DHT22;7322;50.872;4.386;2023-07-09T02:39:43;27.40;99.90
14473;DHT22;7322;50.872;4.386;2023-07-09T02:42:11;27.40;99.90
14473;DHT22;7322;50.872;4.386;2023-07-09T02:44:40;27.40;99.90
14473;DHT22;7322;50.872;4.386;2023-07-09T02:47:08;27.40;99.90
14473;DHT22;7322;50.872;4.386;2023-07-09T02:49:37;27.40;99.90
14473;DHT22;7322;50.872;4.386;2023-07-09T02:52:05;27.50;99.90
14473;DHT22;7322;50.872;4.386;2023-07-09T02:54:33;27.40;99.90
14473;DHT22;7322;50.872;4.386;2023-07-09T02:57:00;27.40;99.90
14473;DHT22;7322;50.872;4.386;2023-07-09T02:59:27;27.30;99.90
14473;DHT22;7322;50.872;4.386;2023-07-09T03:01:55;27.20;99.90
14473;DHT22;7322;50.872;4.386;2023-07-09T03:04:22;27.20;99.90
14473;DHT22;7322;50.872;4.386;2023-07-09T03:06:51;27.20;99.90
14473;DHT22;7322;50.872;4.386;2023-07-09T03:09:18;27.30;99.90
14473;DHT22;7322;50.872;4.386;2023-07-09T03:11:45;27.30;99.90
14473;DHT22;7322;50.872;4.386;2023-07-09T03:14:13;27.20;99.90
14473;DHT22;7322;50.872;4.386;2023-07-09T03:16:40;27.20;99.90
14473;DHT22;7322;50.872;4.386;2023-07-09T03:19:07;27.20;99.90
14473;DHT22;7322;50.872;4.386;2023-07-09T03:21:34;27.20;99.90
14473;DHT22;7322;50.872;4.386;2023-07-09T03:24:04;27.20;99.90
14473;DHT22;7322;50.872;4.386;2023-07-09T03:26:31;27.20;99.90
14473;DHT22;7322;50.872;4.386;2023-07-09T03:28:58;27.20;99.90
14473;DHT22;7322;50.872;4.386;2023-07-09T03:31:25;27.20;99.90
14473;DHT22;7322;50.872;4.386;2023-07-09T03:33:52;27.20;99.90
14473;DHT22;7322;50.872;4.386;2023-07-09T03:36:21;27.10;99.90
14473;DHT22;7322;50.872;4.386;2023-07-09T03:38:48;27.10;99.90
14473;DHT22;7322;50.872;4.386;2023-07-09T03:41:17;27.20;99.90
14473;DHT22;7322;50.872;4.386;2023-07-09T03:43:44;27.20;99.90
14473;DHT22;7322;50.872;4.386;2023-07-09T03:46:11;27.20;99.90
14473;DHT22;7322;50.872;4.386;2023-07-09T03:48:38;27.20;99.90
14473;DHT22;7322;50.872;4.386;2023-07-09T03:51:05;27.30;99.90
14473;DHT22;7322;50.872;4.386;2023-07-09T03:53:33;27.30;99.90
14473;DHT22;7322;50.872;4.386;2023-07-09T03:56:02;27.30;99.90
14473;DHT22;7322;50.872;4.386;2023-07-09T03:58:30;27.20;99.90
14473;DHT22;7322;50.872;4.386;2023-07-09T04:00:57;27.20;99.90
14473;DHT22;7322;50.872;4.386;2023-07-09T04:03:24;27.10;99.90
14473;DHT22;7322;50.872;4.386;2023-07-09T04:05:51;27.10;99.90
14473;DHT22;7322;50.872;4.386;2023-07-09T04:08:18;27.00;99.90
14473;DHT22;7322;50.872;4.386;2023-07-09T04:10:45;27.10;99.90
14473;DHT22;7322;50.872;4.386;2023-07-09T04:13:12;27.10;99.90
14473;DHT22;7322;50.872;4.386;2023-07-09T04:15:41;27.10;99.90
14473;DHT22;7322;50.872;4.386;2023-07-09T04:18:08;27.10;99.90
14473;DHT22;7322;50.872;4.386;2023-07-09T04:20:35;27.10;99.90
14473;DHT22;7322;50.872;4.386;2023-07-09T04:23:02;27.20;99.90
14473;DHT22;7322;50.872;4.386;2023-07-09T04:25:29;27.20;99.90
14473;DHT22;7322;50.872;4.386;2023-07-09T04:27:57;27.10;99.90
14473;DHT22;7322;50.872;4.386;2023-07-09T04:30:25;27.00;99.90
14473;DHT22;7322;50.872;4.386;2023-07-09T04:32:53;27.00;99.90
14473;DHT22;7322;50.872;4.386;2023-07-09T04:35:20;27.00;99.90
14473;DHT22;7322;50.872;4.386;2023-07-09T04:37:47;26.90;99.90
14473;DHT22;7322;50.872;4.386;2023-07-09T04:40:14;26.80;99.90
14473;DHT22;7322;50.872;4.386;2023-07-09T04:42:41;26.80;99.90
14473;DHT22;7322;50.872;4.386;2023-07-09T04:45:11;26.80;99.90
14473;DHT22;7322;50.872;4.386;2023-07-09T04:47:38;26.90;99.90
14473;DHT22;7322;50.872;4.386;2023-07-09T04:50:08;26.90;99.90
14473;DHT22;7322;50.872;4.386;2023-07-09T04:52:36;27.00;99.90
14473;DHT22;7322;50.872;4.386;2023-07-09T04:55:04;26.90;99.90
14473;DHT22;7322;50.872;4.386;2023-07-09T04:57:31;27.00;99.90
14473;DHT22;7322;50.872;4.386;2023-07-09T04:59:58;27.00;99.90
14473;DHT22;7322;50.872;4.386;2023-07-09T05:02:25;27.00;99.90
14473;DHT22;7322;50.872;4.386;2023-07-09T05:04:53;27.00;99.90
14473;DHT22;7322;50.872;4.386;2023-07-09T05:07:21;27.00;99.90
14473;DHT22;7322;50.872;4.386;2023-07-09T05:09:48;27.10;99.90
14473;DHT22;7322;50.872;4.386;2023-07-09T05:12:15;27.10;99.90
14473;DHT22;7322;50.872;4.386;2023-07-09T05:14:42;27.00;99.90
14473;DHT22;7322;50.872;4.386;2023-07-09T05:17:09;27.10;99.90
14473;DHT22;7322;50.872;4.386;2023-07-09T05:19:36;27.10;99.90
14473;DHT22;7322;50.872;4.386;2023-07-09T05:22:04;27.20;99.90
14473;DHT22;7322;50.872;4.386;2023-07-09T05:24:32;27.10;99.90
14473;DHT22;7322;50.872;4.386;2023-07-09T05:26:59;27.20;99.90
14473;DHT22;7322;50.872;4.386;2023-07-09T05:29:26;27.20;99.90
14473;DHT22;7322;50.872;4.386;2023-07-09T05:31:54;27.20;99.90
14473;DHT22;7322;50.872;4.386;2023-07-09T05:34:21;27.20;99.90
14473;DHT22;7322;50.872;4.386;2023-07-09T05:36:48;27.20;99.90
14473;DHT22;7322;50.872;4.386;2023-07-09T05:39:15;27.30;99.90
14473;DHT22;7322;50.872;4.386;2023-07-09T05:41:44;27.30;99.90
14473;DHT22;7322;50.872;4.386;2023-07-09T05:44:11;27.30;99.90
14473;DHT22;7322;50.872;4.386;2023-07-09T05:46:38;27.30;99.90
14473;DHT22;7322;50.872;4.386;2023-07-09T05:49:06;27.40;99.90
14473;DHT22;7322;50.872;4.386;2023-07-09T05:51:34;27.40;99.90
14473;DHT22;7322;50.872;4.386;2023-07-09T05:54:01;27.40;99.90
14473;DHT22;7322;50.872;4.386;2023-07-09T05:56:28;27.40;99.90
14473;DHT22;7322;50.872;4.386;2023-07-09T05:58:56;27.40;99.90
14473;DHT22;7322;50.872;4.386;2023-07-09T06:01:24;27.40;99.90
14473;DHT22;7322;50.872;4.386;2023-07-09T06:03:52;27.30;99.90
14473;DHT22;7322;50.872;4.386;2023-07-09T06:06:19;27.30;99.90
14473;DHT22;7322;50.872;4.386;2023-07-09T06:08:47;27.40;99.90
14473;DHT22;7322;50.872;4.386;2023-07-09T06:11:15;27.50;99.90
14473;DHT22;7322;50.872;4.386;2023-07-09T06:13:43;27.40;99.90
14473;DHT22;7322;50.872;4.386;2023-07-09T06:16:11;27.50;99.90
14473;DHT22;7322;50.872;4.386;2023-07-09T06:18:38;27.50;99.90
14473;DHT22;7322;50.872;4.386;2023-07-09T06:21:06;27.50;99.90
14473;DHT22;7322;50.872;4.386;2023-07-09T06:23:35;27.60;99.90
14473;DHT22;7322;50.872;4.386;2023-07-09T06:26:02;27.60;99.90
14473;DHT22;7322;50.872;4.386;2023-07-09T06:28:30;27.70;99.90
14473;DHT22;7322;50.872;4.386;2023-07-09T06:30:57;27.70;99.90
14473;DHT22;7322;50.872;4.386;2023-07-09T06:33:27;27.70;99.90
14473;DHT22;7322;50.872;4.386;2023-07-09T06:35:56;27.70;99.90
14473;DHT22;7322;50.872;4.386;2023-07-09T06:38:24;27.80;99.90
14473;DHT22;7322;50.872;4.386;2023-07-09T06:40:51;27.80;99.90
14473;DHT22;7322;50.872;4.386;2023-07-09T06:43:18;27.80;99.90
14473;DHT22;7322;50.872;4.386;2023-07-09T06:45:49;27.80;99.90
14473;DHT22;7322;50.872;4.386;2023-07-09T06:48:16;27.70;99.90
14473;DHT22;7322;50.872;4.386;2023-07-09T06:50:45;27.70;99.90
14473;DHT22;7322;50.872;4.386;2023-07-09T06:53:13;27.70;99.90
14473;DHT22;7322;50.872;4.386;2023-07-09T06:55:40;27.70;99.90
14473;DHT22;7322;50.872;4.386;2023-07-09T06:58:07;27.70;99.90
14473;DHT22;7322;50.872;4.386;2023-07-09T07:00:34;27.70;99.90
14473;DHT22;7322;50.872;4.386;2023-07-09T07:03:02;27.80;99.90
14473;DHT22;7322;50.872;4.386;2023-07-09T07:05:29;27.80;99.90
14473;DHT22;7322;50.872;4.386;2023-07-09T07:07:58;27.80;99.90
14473;DHT22;7322;50.872;4.386;2023-07-09T07:10:25;27.80;99.90
14473;DHT22;7322;50.872;4.386;2023-07-09T07:12:56;27.80;99.90
14473;DHT22;7322;50.872;4.386;2023-07-09T07:15:23;27.90;99.90
14473;DHT22;7322;50.872;4.386;2023-07-09T07:17:50;27.80;99.90
14473;DHT22;7322;50.872;4.386;2023-07-09T07:20:18;27.90;99.90
14473;DHT22;7322;50.872;4.386;2023-07-09T07:22:45;27.90;99.90
14473;DHT22;7322;50.872;4.386;2023-07-09T07:25:19;27.90;99.90
14473;DHT22;7322;50.872;4.386;2023-07-09T07:27:48;27.90;99.90
14473;DHT22;7322;50.872;4.386;2023-07-09T07:30:15;27.90;99.90
14473;DHT22;7322;50.872;4.386;2023-07-09T07:32:45;27.90;99.90
14473;DHT22;7322;50.872;4.386;2023-07-09T07:35:13;27.90;99.90
14473;DHT22;7322;50.872;4.386;2023-07-09T07:37:40;27.90;99.90
14473;DHT22;7322;50.872;4.386;2023-07-09T07:40:08;27.90;99.90
14473;DHT22;7322;50.872;4.386;2023-07-09T07:42:38;27.90;99.90
14473;DHT22;7322;50.872;4.386;2023-07-09T07:45:07;27.90;99.90
14473;DHT22;7322;50.872;4.386;2023-07-09T07:47:35;27.90;99.90
14473;DHT22;7322;50.872;4.386;2023-07-09T07:50:02;27.90;99.90
14473;DHT22;7322;50.872;4.386;2023-07-09T07:52:29;28.00;99.90
14473;DHT22;7322;50.872;4.386;2023-07-09T07:54:56;28.00;99.90
14473;DHT22;7322;50.872;4.386;2023-07-09T07:57:29;28.10;99.90
14473;DHT22;7322;50.872;4.386;2023-07-09T07:59:59;28.10;99.90
14473;DHT22;7322;50.872;4.386;2023-07-09T08:02:26;28.10;99.90
14473;DHT22;7322;50.872;4.386;2023-07-09T08:04:54;28.20;99.90
14473;DHT22;7322;50.872;4.386;2023-07-09T08:07:27;28.20;99.90
14473;DHT22;7322;50.872;4.386;2023-07-09T08:10:04;28.30;99.90
14473;DHT22;7322;50.872;4.386;2023-07-09T08:12:32;28.30;99.90
14473;DHT22;7322;50.872;4.386;2023-07-09T08:15:02;28.20;99.90
14473;DHT22;7322;50.872;4.386;2023-07-09T08:17:29;28.20;99.90
14473;DHT22;7322;50.872;4.386;2023-07-09T08:20:05;28.30;99.90
14473;DHT22;7322;50.872;4.386;2023-07-09T08:22:34;28.30;99.90
14473;DHT22;7322;50.872;4.386;2023-07-09T08:25:02;28.30;99.90
14473;DHT22;7322;50.872;4.386;2023-07-09T08:27:30;28.30;99.90
14473;DHT22;7322;50.872;4.386;2023-07-09T08:30:01;28.30;99.90
14473;DHT22;7322;50.872;4.386;2023-07-09T08:32:34;28.40;99.90
14473;DHT22;7322;50.872;4.386;2023-07-09T08:35:01;28.40;99.90
14473;DHT22;7322;50.872;4.386;2023-07-09T08:37:28;28.40;99.90
14473;DHT22;7322;50.872;4.386;2023-07-09T08:39:55;28.50;99.90
14473;DHT22;7322;50.872;4.386;2023-07-09T08:42:28;28.50;99.90
14473;DHT22;7322;50.872;4.386;2023-07-09T08:45:07;28.50;99.90
14473;DHT22;7322;50.872;4.386;2023-07-09T08:47:42;28.50;99.90
14473;DHT22;7322;50.872;4.386;2023-07-09T08:50:20;28.50;99.90
14473;DHT22;7322;50.872;4.386;2023-07-09T08:52:51;28.60;99.90
14473;DHT22;7322;50.872;4.386;2023-07-09T08:55:21;28.50;99.90
14473;DHT22;7322;50.872;4.386;2023-07-09T08:57:53;28.60;99.90
14473;DHT22;7322;50.872;4.386;2023-07-09T09:00:28;28.60;99.90
14473;DHT22;7322;50.872;4.386;2023-07-09T09:03:00;28.60;99.90
14473;DHT22;7322;50.872;4.386;2023-07-09T09:05:41;28.60;99.90
14473;DHT22;7322;50.872;4.386;2023-07-09T09:08:22;28.60;99.90
14473;DHT22;7322;50.872;4.386;2023-07-09T09:11:12;28.70;99.90
14473;DHT22;7322;50.872;4.386;2023-07-09T09:13:45;28.60;99.90
14473;DHT22;7322;50.872;4.386;2023-07-09T09:16:24;28.60;99.90
14473;DHT22;7322;50.872;4.386;2023-07-09T09:18:55;28.60;99.90
14473;DHT22;7322;50.872;4.386;2023-07-09T09:21:28;28.70;99.90
14473;DHT22;7322;50.872;4.386;2023-07-09T09:23:58;28.60;99.90
14473;DHT22;7322;50.872;4.386;2023-07-09T09:26:31;28.60;99.90
14473;DHT22;7322;50.872;4.386;2023-07-09T09:28:59;28.60;99.90
14473;DHT22;7322;50.872;4.386;2023-07-09T09:31:30;28.60;99.90
14473;DHT22;7322;50.872;4.386;2023-07-09T09:33:59;28.60;99.90
14473;DHT22;7322;50.872;4.386;2023-07-09T09:36:27;28.60;99.90
14473;DHT22;7322;50.872;4.386;2023-07-09T09:38:54;28.70;99.90
14473;DHT22;7322;50.872;4.386;2023-07-09T09:41:23;28.70;99.90
14473;DHT22;7322;50.872;4.386;2023-07-09T09:43:53;28.70;99.90
14473;DHT22;7322;50.872;4.386;2023-07-09T09:46:22;28.70;99.90
14473;DHT22;7322;50.872;4.386;2023-07-09T09:48:53;28.70;99.90
14473;DHT22;7322;50.872;4.386;2023-07-09T09:51:20;28.70;99.90
14473;DHT22;7322;50.872;4.386;2023-07-09T09:53:49;28.70;99.90
14473;DHT22;7322;50.872;4.386;2023-07-09T09:56:19;28.70;99.90
14473;DHT22;7322;50.872;4.386;2023-07-09T09:58:51;28.70;99.90
14473;DHT22;7322;50.872;4.386;2023-07-09T10:01:18;28.80;99.90
14473;DHT22;7322;50.872;4.386;2023-07-09T10:03:48;28.80;99.90
14473;DHT22;7322;50.872;4.386;2023-07-09T10:06:19;28.80;99.90
14473;DHT22;7322;50.872;4.386;2023-07-09T10:08:54;28.90;99.90
14473;DHT22;7322;50.872;4.386;2023-07-09T10:11:28;28.90;99.90
14473;DHT22;7322;50.872;4.386;2023-07-09T10:14:05;28.90;99.90
14473;DHT22;7322;50.872;4.386;2023-07-09T10:16:40;28.90;99.90
14473;DHT22;7322;50.872;4.386;2023-07-09T10:19:17;28.90;99.90
14473;DHT22;7322;50.872;4.386;2023-07-09T10:21:52;28.90;99.90
14473;DHT22;7322;50.872;4.386;2023-07-09T10:24:37;28.90;99.90
14473;DHT22;7322;50.872;4.386;2023-07-09T10:27:13;28.90;99.90
14473;DHT22;7322;50.872;4.386;2023-07-09T10:29:57;28.90;99.90
14473;DHT22;7322;50.872;4.386;2023-07-09T10:32:35;28.90;99.90
14473;DHT22;7322;50.872;4.386;2023-07-09T10:35:15;28.90;99.90
14473;DHT22;7322;50.872;4.386;2023-07-09T10:38:03;29.00;99.90
14473;DHT22;7322;50.872;4.386;2023-07-09T10:40:39;29.00;99.90
14473;DHT22;7322;50.872;4.386;2023-07-09T10:43:15;28.90;99.90
14473;DHT22;7322;50.872;4.386;2023-07-09T10:45:52;29.00;99.90
14473;DHT22;7322;50.872;4.386;2023-07-09T10:48:33;29.00;99.90
14473;DHT22;7322;50.872;4.386;2023-07-09T10:51:00;28.90;99.90
14473;DHT22;7322;50.872;4.386;2023-07-09T10:53:36;28.90;99.90
14473;DHT22;7322;50.872;4.386;2023-07-09T10:56:07;28.90;99.90
14473;DHT22;7322;50.872;4.386;2023-07-09T10:58:41;28.90;99.90
14473;DHT22;7322;50.872;4.386;2023-07-09T11:01:13;29.00;99.90
14473;DHT22;7322;50.872;4.386;2023-07-09T11:03:44;28.90;99.90
14473;DHT22;7322;50.872;4.386;2023-07-09T11:06:18;28.90;99.90
14473;DHT22;7322;50.872;4.386;2023-07-09T11:08:51;28.90;99.90
14473;DHT22;7322;50.872;4.386;2023-07-09T11:11:27;28.90;99.90
14473;DHT22;7322;50.872;4.386;2023-07-09T11:13:57;28.90;99.90
14473;DHT22;7322;50.872;4.386;2023-07-09T11:16:30;28.90;99.90
14473;DHT22;7322;50.872;4.386;2023-07-09T11:19:03;29.00;99.90
14473;DHT22;7322;50.872;4.386;2023-07-09T11:21:32;28.90;99.90
14473;DHT22;7322;50.872;4.386;2023-07-09T11:24:00;28.90;99.90
14473;DHT22;7322;50.872;4.386;2023-07-09T11:26:29;28.90;99.90
14473;DHT22;7322;50.872;4.386;2023-07-09T11:29:14;28.90;99.90
14473;DHT22;7322;50.872;4.386;2023-07-09T11:31:42;28.90;99.90
14473;DHT22;7322;50.872;4.386;2023-07-09T11:34:17;28.90;99.90
14473;DHT22;7322;50.872;4.386;2023-07-09T11:36:50;28.90;99.90
14473;DHT22;7322;50.872;4.386;2023-07-09T11:39:29;28.90;99.90
14473;DHT22;7322;50.872;4.386;2023-07-09T11:42:27;28.80;99.90
14473;DHT22;7322;50.872;4.386;2023-07-09T11:45:02;28.80;99.90
14473;DHT22;7322;50.872;4.386;2023-07-09T11:47:40;28.80;99.90
14473;DHT22;7322;50.872;4.386;2023-07-09T11:50:20;28.80;99.90
14473;DHT22;7322;50.872;4.386;2023-07-09T11:52:52;28.70;99.90
14473;DHT22;7322;50.872;4.386;2023-07-09T11:55:26;28.70;99.90
14473;DHT22;7322;50.872;4.386;2023-07-09T11:57:54;28.70;99.90
14473;DHT22;7322;50.872;4.386;2023-07-09T12:00:21;28.70;99.90
14473;DHT22;7322;50.872;4.386;2023-07-09T12:02:50;28.70;99.90
14473;DHT22;7322;50.872;4.386;2023-07-09T12:05:21;28.60;99.90
14473;DHT22;7322;50.872;4.386;2023-07-09T12:07:49;28.60;99.90
14473;DHT22;7322;50.872;4.386;2023-07-09T12:10:21;28.60;99.90
14473;DHT22;7322;50.872;4.386;2023-07-09T12:12:53;28.60;99.90
14473;DHT22;7322;50.872;4.386;2023-07-09T12:15:22;28.60;99.90
14473;DHT22;7322;50.872;4.386;2023-07-09T12:17:57;28.60;99.90
14473;DHT22;7322;50.872;4.386;2023-07-09T12:20:25;28.60;99.90
14473;DHT22;7322;50.872;4.386;2023-07-09T12:22:53;28.50;99.90
14473;DHT22;7322;50.872;4.386;2023-07-09T12:25:24;28.50;99.90
14473;DHT22;7322;50.872;4.386;2023-07-09T12:27:52;28.50;99.90
14473;DHT22;7322;50.872;4.386;2023-07-09T12:30:19;28.50;99.90
14473;DHT22;7322;50.872;4.386;2023-07-09T12:32:49;28.50;99.90
14473;DHT22;7322;50.872;4.386;2023-07-09T12:35:18;28.50;99.90
14473;DHT22;7322;50.872;4.386;2023-07-09T12:37:47;28.50;99.90
14473;DHT22;7322;50.872;4.386;2023-07-09T12:40:17;28.50;99.90
14473;DHT22;7322;50.872;4.386;2023-07-09T12:42:47;28.50;99.90
14473;DHT22;7322;50.872;4.386;2023-07-09T12:45:16;28.50;99.90
14473;DHT22;7322;50.872;4.386;2023-07-09T12:47:44;28.40;99.90
14473;DHT22;7322;50.872;4.386;2023-07-09T12:50:23;28.40;99.90
14473;DHT22;7322;50.872;4.386;2023-07-09T12:52:55;28.30;99.90
14473;DHT22;7322;50.872;4.386;2023-07-09T12:55:23;28.30;99.90
14473;DHT22;7322;50.872;4.386;2023-07-09T12:58:21;28.20;99.90
14473;DHT22;7322;50.872;4.386;2023-07-09T13:00:51;28.10;99.90
14473;DHT22;7322;50.872;4.386;2023-07-09T13:03:29;28.10;99.90
14473;DHT22;7322;50.872;4.386;2023-07-09T13:05:57;28.10;99.90
14473;DHT22;7322;50.872;4.386;2023-07-09T13:08:27;28.00;99.90
14473;DHT22;7322;50.872;4.386;2023-07-09T13:10:57;28.00;99.90
14473;DHT22;7322;50.872;4.386;2023-07-09T13:13:25;28.00;99.90
14473;DHT22;7322;50.872;4.386;2023-07-09T13:15:55;27.90;99.90
14473;DHT22;7322;50.872;4.386;2023-07-09T13:18:25;27.80;99.90
14473;DHT22;7322;50.872;4.386;2023-07-09T13:20:54;27.90;99.90
14473;DHT22;7322;50.872;4.386;2023-07-09T13:23:23;28.00;99.90
14473;DHT22;7322;50.872;4.386;2023-07-09T13:25:51;27.90;99.90
14473;DHT22;7322;50.872;4.386;2023-07-09T13:28:22;27.90;99.90
14473;DHT22;7322;50.872;4.386;2023-07-09T13:30:55;27.90;99.90
14473;DHT22;7322;50.872;4.386;2023-07-09T13:33:23;27.90;99.90
14473;DHT22;7322;50.872;4.386;2023-07-09T13:35:50;27.90;99.90
14473;DHT22;7322;50.872;4.386;2023-07-09T13:38:20;28.00;99.90
14473;DHT22;7322;50.872;4.386;2023-07-09T13:40:50;27.90;99.90
14473;DHT22;7322;50.872;4.386;2023-07-09T13:43:24;27.90;99.90
14473;DHT22;7322;50.872;4.386;2023-07-09T13:45:53;28.00;99.90
14473;DHT22;7322;50.872;4.386;2023-07-09T13:48:23;28.00;99.90
14473;DHT22;7322;50.872;4.386;2023-07-09T13:50:53;28.00;99.90
14473;DHT22;7322;50.872;4.386;2023-07-09T13:53:22;28.10;99.90
14473;DHT22;7322;50.872;4.386;2023-07-09T13:55:50;28.10;99.90
14473;DHT22;7322;50.872;4.386;2023-07-09T13:58:24;28.00;99.90
14473;DHT22;7322;50.872;4.386;2023-07-09T14:00:56;28.10;99.90
14473;DHT22;7322;50.872;4.386;2023-07-09T14:03:27;28.20;99.90
14473;DHT22;7322;50.872;4.386;2023-07-09T14:05:55;28.20;99.90
14473;DHT22;7322;50.872;4.386;2023-07-09T14:08:22;28.30;99.90
14473;DHT22;7322;50.872;4.386;2023-07-09T14:10:49;28.20;99.90
14473;DHT22;7322;50.872;4.386;2023-07-09T14:13:18;28.30;99.90
14473;DHT22;7322;50.872;4.386;2023-07-09T14:15:45;28.40;99.90
14473;DHT22;7322;50.872;4.386;2023-07-09T14:18:18;28.40;99.90
14473;DHT22;7322;50.872;4.386;2023-07-09T14:20:46;28.50;99.90
14473;DHT22;7322;50.872;4.386;2023-07-09T14:23:15;28.50;99.90
14473;DHT22;7322;50.872;4.386;2023-07-09T14:25:43;28.60;99.90
14473;DHT22;7322;50.872;4.386;2023-07-09T14:28:14;28.50;99.90
14473;DHT22;7322;50.872;4.386;2023-07-09T14:30:44;28.60;99.90
14473;DHT22;7322;50.872;4.386;2023-07-09T14:33:15;28.50;99.90
14473;DHT22;7322;50.872;4.386;2023-07-09T14:35:44;28.50;99.90
14473;DHT22;7322;50.872;4.386;2023-07-09T14:38:18;28.50;99.90
14473;DHT22;7322;50.872;4.386;2023-07-09T14:40:49;28.60;99.90
14473;DHT22;7322;50.872;4.386;2023-07-09T14:43:16;28.50;99.90
14473;DHT22;7322;50.872;4.386;2023-07-09T14:45:55;28.40;99.90
14473;DHT22;7322;50.872;4.386;2023-07-09T14:48:27;28.40;99.90
14473;DHT22;7322;50.872;4.386;2023-07-09T14:50:54;28.50;99.90
14473;DHT22;7322;50.872;4.386;2023-07-09T14:53:24;28.50;99.90
14473;DHT22;7322;50.872;4.386;2023-07-09T14:55:52;28.60;99.90
14473;DHT22;7322;50.872;4.386;2023-07-09T14:58:26;28.60;99.90
14473;DHT22;7322;50.872;4.386;2023-07-09T15:00:53;28.60;99.90
14473;DHT22;7322;50.872;4.386;2023-07-09T15:03:22;28.70;99.90
14473;DHT22;7322;50.872;4.386;2023-07-09T15:06:19;28.70;99.90
14473;DHT22;7322;50.872;4.386;2023-07-09T15:08:47;28.70;99.90
14473;DHT22;7322;50.872;4.386;2023-07-09T15:11:35;28.70;99.90
14473;DHT22;7322;50.872;4.386;2023-07-09T15:14:07;28.80;99.90
14473;DHT22;7322;50.872;4.386;2023-07-09T15:16:53;28.80;99.90
14473;DHT22;7322;50.872;4.386;2023-07-09T15:19:22;28.90;99.90
14473;DHT22;7322;50.872;4.386;2023-07-09T15:21:51;28.90;99.90
14473;DHT22;7322;50.872;4.386;2023-07-09T15:24:22;28.90;99.90
14473;DHT22;7322;50.872;4.386;2023-07-09T15:26:53;28.90;99.90
14473;DHT22;7322;50.872;4.386;2023-07-09T15:29:27;28.90;99.90
14473;DHT22;7322;50.872;4.386;2023-07-09T15:32:00;28.90;99.90
14473;DHT22;7322;50.872;4.386;2023-07-09T15:34:37;28.90;99.90
14473;DHT22;7322;50.872;4.386;2023-07-09T15:37:16;28.90;99.90
14473;DHT22;7322;50.872;4.386;2023-07-09T15:39:51;29.00;99.90
14473;DHT22;7322;50.872;4.386;2023-07-09T15:45:49;29.00;99.90
14473;DHT22;7322;50.872;4.386;2023-07-09T15:48:34;29.00;99.90
14473;DHT22;7322;50.872;4.386;2023-07-09T15:51:03;29.00;99.90
14473;DHT22;7322;50.872;4.386;2023-07-09T15:53:32;28.90;99.90
14473;DHT22;7322;50.872;4.386;2023-07-09T15:56:01;29.00;99.90
14473;DHT22;7322;50.872;4.386;2023-07-09T15:58:35;29.00;99.90
14473;DHT22;7322;50.872;4.386;2023-07-09T16:01:10;29.00;99.90
14473;DHT22;7322;50.872;4.386;2023-07-09T16:03:49;29.10;99.90
14473;DHT22;7322;50.872;4.386;2023-07-09T16:06:20;29.10;99.90
14473;DHT22;7322;50.872;4.386;2023-07-09T16:08:59;29.10;99.90